sensor_id;sensor_type;location;lat;lon;timestamp;pressure;altitude;pressure_sealevel;temperature;humidity
54407;BME280;40313;50.308;30.374;2024-01-16T00:00:52;97564.03;;;6.15;nan
54407;BME280;40313;50.308;30.374;2024-01-16T00:03:19;97554.38;;;6.17;nan
54407;BME280;40313;50.308;30.374;2024-01-16T00:05:45;97528.88;;;5.99;nan
54407;BME280;40313;50.308;30.374;2024-01-16T00:08:12;97529.66;;;6.13;nan
54407;BME280;40313;50.308;30.374;2024-01-16T00:10:38;97547.41;;;6.06;nan
54407;BME280;40313;50.308;30.374;2024-01-16T00:13:05;97541.78;;;6.12;nan
54407;BME280;40313;50.308;30.374;2024-01-16T00:15:33;97540.28;;;6.21;nan
54407;BME280;40313;50.308;30.374;2024-01-16T00:18:00;97540.28;;;6.21;nan
54407;BME280;40313;50.308;30.374;2024-01-16T00:20:27;97551.63;;;6.31;nan
54407;BME280;40313;50.308;30.374;2024-01-16T00:22:53;97557.66;;;6.32;nan
54407;BME280;40313;50.308;30.374;2024-01-16T00:25:20;97542.41;;;6.27;nan
54407;BME280;40313;50.308;30.374;2024-01-16T00:27:47;97538.19;;;6.26;nan
54407;BME280;40313;50.308;30.374;2024-01-16T00:30:14;97548.28;;;6.18;nan
54407;BME280;40313;50.308;30.374;2024-01-16T00:32:42;97531.03;;;6.30;nan
54407;BME280;40313;50.308;30.374;2024-01-16T00:35:08;97556.06;;;5.68;nan
54407;BME280;40313;50.308;30.374;2024-01-16T00:37:36;97547.50;;;5.67;nan
54407;BME280;40313;50.308;30.374;2024-01-16T00:40:03;97547.22;;;5.46;nan
54407;BME280;40313;50.308;30.374;2024-01-16T00:42:30;97541.03;;;5.49;nan
54407;BME280;40313;50.308;30.374;2024-01-16T00:44:57;97542.47;;;5.53;nan
54407;BME280;40313;50.308;30.374;2024-01-16T00:47:24;97567.88;;;5.72;nan
54407;BME280;40313;50.308;30.374;2024-01-16T00:49:52;97539.94;;;5.51;nan
54407;BME280;40313;50.308;30.374;2024-01-16T00:52:19;97541.63;;;5.52;nan
54407;BME280;40313;50.308;30.374;2024-01-16T00:54:45;97551.72;;;5.68;nan
54407;BME280;40313;50.308;30.374;2024-01-16T00:57:12;97550.47;;;5.74;nan
54407;BME280;40313;50.308;30.374;2024-01-16T00:59:40;97553.81;;;5.63;nan
54407;BME280;40313;50.308;30.374;2024-01-16T01:02:07;97544.91;;;5.67;nan
54407;BME280;40313;50.308;30.374;2024-01-16T01:04:35;97553.81;;;5.63;nan
54407;BME280;40313;50.308;30.374;2024-01-16T01:07:03;97532.50;;;5.60;nan
54407;BME280;40313;50.308;30.374;2024-01-16T01:09:32;97551.97;;;5.52;nan
54407;BME280;40313;50.308;30.374;2024-01-16T01:11:59;97536.84;;;5.59;nan
54407;BME280;40313;50.308;30.374;2024-01-16T01:14:25;97537.44;;;5.63;nan
54407;BME280;40313;50.308;30.374;2024-01-16T01:16:54;97551.00;;;5.66;nan
54407;BME280;40313;50.308;30.374;2024-01-16T01:19:21;97545.94;;;5.65;nan
54407;BME280;40313;50.308;30.374;2024-01-16T01:21:47;97546.97;;;5.62;nan
54407;BME280;40313;50.308;30.374;2024-01-16T01:24:16;97546.97;;;5.62;nan
54407;BME280;40313;50.308;30.374;2024-01-16T01:26:42;97547.91;;;5.61;nan
54407;BME280;40313;50.308;30.374;2024-01-16T01:29:09;97551.53;;;5.59;nan
54407;BME280;40313;50.308;30.374;2024-01-16T01:31:36;97557.31;;;5.62;nan
54407;BME280;40313;50.308;30.374;2024-01-16T01:34:02;97565.41;;;5.58;nan
54407;BME280;40313;50.308;30.374;2024-01-16T01:36:29;97561.28;;;5.42;nan
54407;BME280;40313;50.308;30.374;2024-01-16T01:38:56;97539.56;;;5.45;nan
54407;BME280;40313;50.308;30.374;2024-01-16T01:41:24;97568.91;;;5.69;nan
54407;BME280;40313;50.308;30.374;2024-01-16T01:43:50;97578.66;;;5.53;nan
54407;BME280;40313;50.308;30.374;2024-01-16T01:46:18;97607.81;;;5.55;nan
54407;BME280;40313;50.308;30.374;2024-01-16T01:48:46;97588.59;;;5.59;nan
54407;BME280;40313;50.308;30.374;2024-01-16T01:51:16;97577.13;;;5.38;nan
54407;BME280;40313;50.308;30.374;2024-01-16T01:53:44;97596.34;;;5.59;nan
54407;BME280;40313;50.308;30.374;2024-01-16T01:56:14;97596.44;;;5.58;nan
54407;BME280;40313;50.308;30.374;2024-01-16T01:58:46;97580.50;;;5.51;nan
54407;BME280;40313;50.308;30.374;2024-01-16T02:01:14;97569.94;;;5.54;nan
54407;BME280;40313;50.308;30.374;2024-01-16T02:03:42;97567.47;;;5.52;nan
54407;BME280;40313;50.308;30.374;2024-01-16T02:06:10;97548.91;;;5.34;nan
54407;BME280;40313;50.308;30.374;2024-01-16T02:08:36;97571.41;;;5.58;nan
54407;BME280;40313;50.308;30.374;2024-01-16T02:11:03;97565.00;;;5.51;nan
54407;BME280;40313;50.308;30.374;2024-01-16T02:13:31;97567.38;;;5.54;nan
54407;BME280;40313;50.308;30.374;2024-01-16T02:15:59;97572.88;;;5.49;nan
54407;BME280;40313;50.308;30.374;2024-01-16T02:18:26;97556.00;;;5.57;nan
54407;BME280;40313;50.308;30.374;2024-01-16T02:20:55;97575.50;;;5.74;nan
54407;BME280;40313;50.308;30.374;2024-01-16T02:23:27;97584.19;;;5.72;nan
54407;BME280;40313;50.308;30.374;2024-01-16T02:25:54;97590.13;;;5.75;nan
54407;BME280;40313;50.308;30.374;2024-01-16T02:28:21;97573.28;;;5.56;nan
54407;BME280;40313;50.308;30.374;2024-01-16T02:30:47;97594.06;;;5.54;nan
54407;BME280;40313;50.308;30.374;2024-01-16T02:33:14;97584.13;;;5.61;nan
54407;BME280;40313;50.308;30.374;2024-01-16T02:35:40;97573.31;;;5.30;nan
54407;BME280;40313;50.308;30.374;2024-01-16T02:38:07;97575.69;;;5.33;nan
54407;BME280;40313;50.308;30.374;2024-01-16T02:40:35;97593.31;;;5.65;nan
54407;BME280;40313;50.308;30.374;2024-01-16T02:43:02;97586.81;;;5.60;nan
54407;BME280;40313;50.308;30.374;2024-01-16T02:45:28;97555.59;;;5.50;nan
54407;BME280;40313;50.308;30.374;2024-01-16T02:47:55;97585.88;;;5.61;nan
54407;BME280;40313;50.308;30.374;2024-01-16T02:50:21;97568.00;;;5.58;nan
54407;BME280;40313;50.308;30.374;2024-01-16T02:56:15;97590.31;;;5.71;nan
54407;BME280;40313;50.308;30.374;2024-01-16T03:02:03;97560.84;;;5.61;nan
54407;BME280;40313;50.308;30.374;2024-01-16T03:04:30;97566.22;;;5.58;nan
54407;BME280;40313;50.308;30.374;2024-01-16T03:06:56;97579.91;;;5.60;nan
54407;BME280;40313;50.308;30.374;2024-01-16T03:09:23;97583.00;;;5.52;nan
54407;BME280;40313;50.308;30.374;2024-01-16T03:11:51;97590.16;;;5.49;nan
54407;BME280;40313;50.308;30.374;2024-01-16T03:14:17;97558.50;;;5.32;nan
54407;BME280;40313;50.308;30.374;2024-01-16T03:16:44;97584.78;;;5.39;nan
54407;BME280;40313;50.308;30.374;2024-01-16T03:19:11;97608.66;;;5.43;nan
54407;BME280;40313;50.308;30.374;2024-01-16T03:21:38;97592.91;;;5.46;nan
54407;BME280;40313;50.308;30.374;2024-01-16T03:24:05;97595.81;;;5.41;nan
54407;BME280;40313;50.308;30.374;2024-01-16T03:26:32;97596.47;;;5.45;nan
54407;BME280;40313;50.308;30.374;2024-01-16T03:29:00;97560.06;;;5.22;nan
54407;BME280;40313;50.308;30.374;2024-01-16T03:31:26;97588.28;;;5.51;nan
54407;BME280;40313;50.308;30.374;2024-01-16T03:33:53;97598.09;;;5.46;nan
54407;BME280;40313;50.308;30.374;2024-01-16T03:36:20;97599.97;;;5.57;nan
54407;BME280;40313;50.308;30.374;2024-01-16T03:38:46;97604.53;;;5.53;nan
54407;BME280;40313;50.308;30.374;2024-01-16T03:41:13;97600.19;;;5.53;nan
54407;BME280;40313;50.308;30.374;2024-01-16T03:43:40;97597.16;;;5.60;nan
54407;BME280;40313;50.308;30.374;2024-01-16T03:46:10;97593.66;;;5.48;nan
54407;BME280;40313;50.308;30.374;2024-01-16T03:48:37;97594.69;;;5.58;nan
54407;BME280;40313;50.308;30.374;2024-01-16T03:51:03;97571.00;;;5.39;nan
54407;BME280;40313;50.308;30.374;2024-01-16T03:53:32;97575.53;;;5.61;nan
54407;BME280;40313;50.308;30.374;2024-01-16T03:55:58;97581.31;;;5.64;nan
54407;BME280;40313;50.308;30.374;2024-01-16T03:58:25;97583.00;;;5.52;nan
54407;BME280;40313;50.308;30.374;2024-01-16T04:00:51;97578.75;;;5.51;nan
54407;BME280;40313;50.308;30.374;2024-01-16T04:03:20;97581.50;;;5.74;nan
54407;BME280;40313;50.308;30.374;2024-01-16T04:05:46;97584.03;;;5.50;nan
54407;BME280;40313;50.308;30.374;2024-01-16T04:08:13;97581.53;;;5.61;nan
54407;BME280;40313;50.308;30.374;2024-01-16T04:10:40;97585.16;;;5.46;nan
54407;BME280;40313;50.308;30.374;2024-01-16T04:13:07;97578.69;;;5.40;nan
54407;BME280;40313;50.308;30.374;2024-01-16T04:15:35;97585.72;;;5.25;nan
54407;BME280;40313;50.308;30.374;2024-01-16T04:18:03;97590.44;;;5.57;nan
54407;BME280;40313;50.308;30.374;2024-01-16T04:20:31;97569.25;;;5.52;nan
54407;BME280;40313;50.308;30.374;2024-01-16T04:22:58;97598.28;;;5.68;nan
54407;BME280;40313;50.308;30.374;2024-01-16T04:25:25;97586.03;;;5.33;nan
54407;BME280;40313;50.308;30.374;2024-01-16T04:27:50;97580.94;;;5.58;nan
54407;BME280;40313;50.308;30.374;2024-01-16T04:30:17;97563.16;;;5.53;nan
54407;BME280;40313;50.308;30.374;2024-01-16T04:32:45;97578.69;;;5.40;nan
54407;BME280;40313;50.308;30.374;2024-01-16T04:35:12;97594.34;;;5.63;nan
54407;BME280;40313;50.308;30.374;2024-01-16T04:37:40;97592.63;;;5.50;nan
54407;BME280;40313;50.308;30.374;2024-01-16T04:40:07;97608.25;;;5.62;nan
54407;BME280;40313;50.308;30.374;2024-01-16T04:42:34;97592.06;;;5.71;nan
54407;BME280;40313;50.308;30.374;2024-01-16T04:45:00;97611.72;;;5.74;nan
54407;BME280;40313;50.308;30.374;2024-01-16T04:47:27;97608.84;;;5.65;nan
54407;BME280;40313;50.308;30.374;2024-01-16T04:49:53;97610.31;;;5.57;nan
54407;BME280;40313;50.308;30.374;2024-01-16T04:52:20;97594.19;;;5.53;nan
54407;BME280;40313;50.308;30.374;2024-01-16T04:54:48;97604.31;;;5.56;nan
54407;BME280;40313;50.308;30.374;2024-01-16T04:57:14;97602.84;;;5.65;nan
54407;BME280;40313;50.308;30.374;2024-01-16T04:59:41;97584.34;;;5.58;nan
54407;BME280;40313;50.308;30.374;2024-01-16T05:02:07;97608.59;;;5.81;nan
54407;BME280;40313;50.308;30.374;2024-01-16T05:04:36;97609.44;;;5.82;nan
54407;BME280;40313;50.308;30.374;2024-01-16T05:07:03;97612.53;;;5.87;nan
54407;BME280;40313;50.308;30.374;2024-01-16T05:09:30;97601.63;;;5.58;nan
54407;BME280;40313;50.308;30.374;2024-01-16T05:11:58;97609.59;;;5.67;nan
54407;BME280;40313;50.308;30.374;2024-01-16T05:14:24;97601.81;;;5.67;nan
54407;BME280;40313;50.308;30.374;2024-01-16T05:16:51;97597.44;;;5.81;nan
54407;BME280;40313;50.308;30.374;2024-01-16T05:19:17;97578.41;;;5.82;nan
54407;BME280;40313;50.308;30.374;2024-01-16T05:21:44;97617.81;;;5.98;nan
54407;BME280;40313;50.308;30.374;2024-01-16T05:24:11;97611.28;;;5.93;nan
54407;BME280;40313;50.308;30.374;2024-01-16T05:26:37;97614.19;;;5.88;nan
54407;BME280;40313;50.308;30.374;2024-01-16T05:29:05;97595.19;;;5.63;nan
54407;BME280;40313;50.308;30.374;2024-01-16T05:31:32;97611.00;;;5.97;nan
54407;BME280;40313;50.308;30.374;2024-01-16T05:33:58;97615.44;;;5.82;nan
54407;BME280;40313;50.308;30.374;2024-01-16T05:36:26;97620.41;;;5.98;nan
54407;BME280;40313;50.308;30.374;2024-01-16T05:38:53;97612.53;;;5.74;nan
54407;BME280;40313;50.308;30.374;2024-01-16T05:41:19;97627.00;;;5.89;nan
54407;BME280;40313;50.308;30.374;2024-01-16T05:43:46;97620.88;;;5.53;nan
54407;BME280;40313;50.308;30.374;2024-01-16T05:46:15;97629.63;;;5.77;nan
54407;BME280;40313;50.308;30.374;2024-01-16T05:48:41;97613.78;;;5.68;nan
54407;BME280;40313;50.308;30.374;2024-01-16T05:51:08;97615.63;;;5.92;nan
54407;BME280;40313;50.308;30.374;2024-01-16T05:53:34;97644.00;;;5.94;nan
54407;BME280;40313;50.308;30.374;2024-01-16T05:56:01;97632.22;;;5.77;nan
54407;BME280;40313;50.308;30.374;2024-01-16T05:58:27;97638.19;;;5.90;nan
54407;BME280;40313;50.308;30.374;2024-01-16T06:00:54;97659.22;;;5.72;nan
54407;BME280;40313;50.308;30.374;2024-01-16T06:03:22;97639.78;;;5.67;nan
54407;BME280;40313;50.308;30.374;2024-01-16T06:05:49;97668.88;;;5.70;nan
54407;BME280;40313;50.308;30.374;2024-01-16T06:08:15;97675.66;;;5.71;nan
54407;BME280;40313;50.308;30.374;2024-01-16T06:10:42;97678.78;;;5.77;nan
54407;BME280;40313;50.308;30.374;2024-01-16T06:13:09;97654.91;;;5.34;nan
54407;BME280;40313;50.308;30.374;2024-01-16T06:15:35;97690.06;;;5.76;nan
54407;BME280;40313;50.308;30.374;2024-01-16T06:18:02;97683.34;;;5.86;nan
54407;BME280;40313;50.308;30.374;2024-01-16T06:20:30;97687.34;;;5.90;nan
54407;BME280;40313;50.308;30.374;2024-01-16T06:22:58;97686.44;;;6.04;nan
54407;BME280;40313;50.308;30.374;2024-01-16T06:25:24;97676.31;;;6.01;nan
54407;BME280;40313;50.308;30.374;2024-01-16T06:27:51;97682.38;;;6.13;nan
54407;BME280;40313;50.308;30.374;2024-01-16T06:30:17;97671.66;;;6.06;nan
54407;BME280;40313;50.308;30.374;2024-01-16T06:32:44;97685.84;;;6.00;nan
54407;BME280;40313;50.308;30.374;2024-01-16T06:35:12;97689.75;;;6.19;nan
54407;BME280;40313;50.308;30.374;2024-01-16T06:37:40;97684.94;;;6.26;nan
54407;BME280;40313;50.308;30.374;2024-01-16T06:40:07;97661.69;;;5.87;nan
54407;BME280;40313;50.308;30.374;2024-01-16T06:42:34;97678.50;;;6.31;nan
54407;BME280;40313;50.308;30.374;2024-01-16T06:45:02;97664.06;;;6.03;nan
54407;BME280;40313;50.308;30.374;2024-01-16T06:47:29;97669.69;;;6.34;nan
54407;BME280;40313;50.308;30.374;2024-01-16T06:49:56;97675.66;;;6.47;nan
54407;BME280;40313;50.308;30.374;2024-01-16T06:52:22;97672.09;;;6.24;nan
54407;BME280;40313;50.308;30.374;2024-01-16T06:54:51;97695.25;;;6.38;nan
54407;BME280;40313;50.308;30.374;2024-01-16T06:57:17;97679.19;;;6.09;nan
54407;BME280;40313;50.308;30.374;2024-01-16T06:59:44;97688.81;;;6.44;nan
54407;BME280;40313;50.308;30.374;2024-01-16T07:02:11;97701.88;;;6.43;nan
54407;BME280;40313;50.308;30.374;2024-01-16T07:04:38;97708.78;;;6.18;nan
54407;BME280;40313;50.308;30.374;2024-01-16T07:07:04;97705.31;;;6.06;nan
54407;BME280;40313;50.308;30.374;2024-01-16T07:09:31;97704.47;;;6.43;nan
54407;BME280;40313;50.308;30.374;2024-01-16T07:11:59;97692.22;;;6.20;nan
54407;BME280;40313;50.308;30.374;2024-01-16T07:14:25;97709.78;;;6.28;nan
54407;BME280;40313;50.308;30.374;2024-01-16T07:16:52;97716.00;;;6.26;nan
54407;BME280;40313;50.308;30.374;2024-01-16T07:19:18;97695.63;;;6.21;nan
54407;BME280;40313;50.308;30.374;2024-01-16T07:21:45;97699.19;;;6.44;nan
54407;BME280;40313;50.308;30.374;2024-01-16T07:24:12;97724.22;;;6.07;nan
54407;BME280;40313;50.308;30.374;2024-01-16T07:26:39;97722.91;;;6.01;nan
54407;BME280;40313;50.308;30.374;2024-01-16T07:29:08;97726.28;;;5.76;nan
54407;BME280;40313;50.308;30.374;2024-01-16T07:31:34;97723.69;;;6.14;nan
54407;BME280;40313;50.308;30.374;2024-01-16T07:34:01;97716.66;;;5.78;nan
54407;BME280;40313;50.308;30.374;2024-01-16T07:36:27;97731.53;;;5.48;nan
54407;BME280;40313;50.308;30.374;2024-01-16T07:38:55;97710.66;;;5.64;nan
54407;BME280;40313;50.308;30.374;2024-01-16T07:41:21;97717.50;;;5.65;nan
54407;BME280;40313;50.308;30.374;2024-01-16T07:43:48;97733.25;;;6.01;nan
54407;BME280;40313;50.308;30.374;2024-01-16T07:46:16;97719.38;;;6.02;nan
54407;BME280;40313;50.308;30.374;2024-01-16T07:48:43;97733.22;;;5.88;nan
54407;BME280;40313;50.308;30.374;2024-01-16T07:51:09;97735.91;;;5.61;nan
54407;BME280;40313;50.308;30.374;2024-01-16T07:53:36;97727.94;;;5.77;nan
54407;BME280;40313;50.308;30.374;2024-01-16T07:56:03;97732.44;;;6.00;nan
54407;BME280;40313;50.308;30.374;2024-01-16T07:58:30;97723.50;;;5.66;nan
54407;BME280;40313;50.308;30.374;2024-01-16T08:00:56;97705.25;;;5.16;nan
54407;BME280;40313;50.308;30.374;2024-01-16T08:03:24;97718.38;;;4.85;nan
54407;BME280;40313;50.308;30.374;2024-01-16T08:05:51;97724.81;;;5.71;nan
54407;BME280;40313;50.308;30.374;2024-01-16T08:08:17;97725.22;;;5.40;nan
54407;BME280;40313;50.308;30.374;2024-01-16T08:10:44;97715.09;;;5.62;nan
54407;BME280;40313;50.308;30.374;2024-01-16T08:13:10;97703.00;;;6.01;nan
54407;BME280;40313;50.308;30.374;2024-01-16T08:15:37;97699.78;;;5.85;nan
54407;BME280;40313;50.308;30.374;2024-01-16T08:18:04;97721.19;;;5.61;nan
54407;BME280;40313;50.308;30.374;2024-01-16T08:20:32;97706.38;;;5.25;nan
54407;BME280;40313;50.308;30.374;2024-01-16T08:22:58;97733.41;;;5.46;nan
54407;BME280;40313;50.308;30.374;2024-01-16T08:25:25;97718.31;;;5.40;nan
54407;BME280;40313;50.308;30.374;2024-01-16T08:27:51;97727.19;;;5.36;nan
54407;BME280;40313;50.308;30.374;2024-01-16T08:30:18;97731.28;;;6.04;nan
54407;BME280;40313;50.308;30.374;2024-01-16T08:32:45;97703.38;;;5.31;nan
54407;BME280;40313;50.308;30.374;2024-01-16T08:35:11;97740.03;;;5.50;nan
54407;BME280;40313;50.308;30.374;2024-01-16T08:37:39;97706.91;;;5.43;nan
54407;BME280;40313;50.308;30.374;2024-01-16T08:40:07;97731.44;;;5.50;nan
54407;BME280;40313;50.308;30.374;2024-01-16T08:42:33;97742.09;;;5.58;nan
54407;BME280;40313;50.308;30.374;2024-01-16T08:45:00;97747.00;;;5.23;nan
54407;BME280;40313;50.308;30.374;2024-01-16T08:47:27;97756.78;;;5.45;nan
54407;BME280;40313;50.308;30.374;2024-01-16T08:49:53;97737.03;;;5.69;nan
54407;BME280;40313;50.308;30.374;2024-01-16T08:52:20;97753.25;;;5.46;nan
54407;BME280;40313;50.308;30.374;2024-01-16T08:54:48;97739.94;;;6.29;nan
54407;BME280;40313;50.308;30.374;2024-01-16T08:57:15;97758.31;;;6.13;nan
54407;BME280;40313;50.308;30.374;2024-01-16T08:59:41;97720.16;;;6.28;nan
54407;BME280;40313;50.308;30.374;2024-01-16T09:02:08;97746.44;;;6.48;nan
54407;BME280;40313;50.308;30.374;2024-01-16T09:04:34;97757.72;;;6.84;nan
54407;BME280;40313;50.308;30.374;2024-01-16T09:07:01;97751.19;;;6.54;nan
54407;BME280;40313;50.308;30.374;2024-01-16T09:09:29;97766.31;;;6.84;nan
54407;BME280;40313;50.308;30.374;2024-01-16T09:11:57;97751.13;;;6.67;nan
54407;BME280;40313;50.308;30.374;2024-01-16T09:14:24;97762.38;;;6.42;nan
54407;BME280;40313;50.308;30.374;2024-01-16T09:16:51;97756.16;;;6.81;nan
54407;BME280;40313;50.308;30.374;2024-01-16T09:19:18;97768.84;;;6.97;nan
54407;BME280;40313;50.308;30.374;2024-01-16T09:21:45;97760.31;;;6.84;nan
54407;BME280;40313;50.308;30.374;2024-01-16T09:24:11;97752.34;;;6.74;nan
54407;BME280;40313;50.308;30.374;2024-01-16T09:26:38;97766.88;;;7.01;nan
54407;BME280;40313;50.308;30.374;2024-01-16T09:29:07;97773.84;;;7.00;nan
54407;BME280;40313;50.308;30.374;2024-01-16T09:31:35;97771.88;;;7.39;nan
54407;BME280;40313;50.308;30.374;2024-01-16T09:34:02;97758.22;;;7.49;nan
54407;BME280;40313;50.308;30.374;2024-01-16T09:36:29;97769.66;;;8.04;nan
54407;BME280;40313;50.308;30.374;2024-01-16T09:38:55;97760.66;;;7.28;nan
54407;BME280;40313;50.308;30.374;2024-01-16T09:41:22;97766.16;;;7.23;nan
54407;BME280;40313;50.308;30.374;2024-01-16T09:43:50;97781.78;;;7.46;nan
54407;BME280;40313;50.308;30.374;2024-01-16T09:46:19;97758.22;;;7.13;nan
54407;BME280;40313;50.308;30.374;2024-01-16T09:48:50;97779.19;;;6.36;nan
54407;BME280;40313;50.308;30.374;2024-01-16T09:51:17;97773.38;;;6.45;nan
54407;BME280;40313;50.308;30.374;2024-01-16T09:53:44;97773.94;;;6.25;nan
54407;BME280;40313;50.308;30.374;2024-01-16T09:56:14;97758.19;;;6.28;nan
54407;BME280;40313;50.308;30.374;2024-01-16T09:58:43;97784.34;;;6.62;nan
54407;BME280;40313;50.308;30.374;2024-01-16T10:01:11;97779.41;;;6.20;nan
54407;BME280;40313;50.308;30.374;2024-01-16T10:03:40;97786.88;;;5.99;nan
54407;BME280;40313;50.308;30.374;2024-01-16T10:06:10;97787.06;;;6.21;nan
54407;BME280;40313;50.308;30.374;2024-01-16T10:08:37;97774.03;;;6.23;nan
54407;BME280;40313;50.308;30.374;2024-01-16T10:11:04;97788.38;;;5.88;nan
54407;BME280;40313;50.308;30.374;2024-01-16T10:13:31;97810.69;;;6.17;nan
54407;BME280;40313;50.308;30.374;2024-01-16T10:15:59;97783.06;;;6.17;nan
54407;BME280;40313;50.308;30.374;2024-01-16T10:18:26;97812.34;;;6.18;nan
54407;BME280;40313;50.308;30.374;2024-01-16T10:20:56;97780.34;;;6.19;nan
54407;BME280;40313;50.308;30.374;2024-01-16T10:23:24;97809.75;;;6.44;nan
54407;BME280;40313;50.308;30.374;2024-01-16T10:26:05;97788.94;;;6.07;nan
54407;BME280;40313;50.308;30.374;2024-01-16T10:28:32;97809.63;;;6.58;nan
54407;BME280;40313;50.308;30.374;2024-01-16T10:31:02;97812.50;;;7.52;nan
54407;BME280;40313;50.308;30.374;2024-01-16T10:33:28;97816.97;;;7.50;nan
54407;BME280;40313;50.308;30.374;2024-01-16T10:36:07;97801.94;;;7.66;nan
54407;BME280;40313;50.308;30.374;2024-01-16T10:38:34;97797.09;;;7.73;nan
54407;BME280;40313;50.308;30.374;2024-01-16T10:41:08;97818.94;;;7.70;nan
54407;BME280;40313;50.308;30.374;2024-01-16T10:43:35;97799.56;;;7.28;nan
54407;BME280;40313;50.308;30.374;2024-01-16T10:46:11;97832.88;;;7.21;nan
54407;BME280;40313;50.308;30.374;2024-01-16T10:48:57;97838.63;;;7.37;nan
54407;BME280;40313;50.308;30.374;2024-01-16T10:51:30;97825.72;;;7.60;nan
54407;BME280;40313;50.308;30.374;2024-01-16T10:53:58;97843.94;;;8.18;nan
54407;BME280;40313;50.308;30.374;2024-01-16T10:56:27;97816.78;;;7.64;nan
54407;BME280;40313;50.308;30.374;2024-01-16T10:59:00;97853.03;;;7.77;nan
54407;BME280;40313;50.308;30.374;2024-01-16T11:01:32;97827.56;;;7.22;nan
54407;BME280;40313;50.308;30.374;2024-01-16T11:04:00;97842.59;;;7.06;nan
54407;BME280;40313;50.308;30.374;2024-01-16T11:06:29;97849.34;;;7.68;nan
54407;BME280;40313;50.308;30.374;2024-01-16T11:08:57;97865.25;;;7.15;nan
54407;BME280;40313;50.308;30.374;2024-01-16T11:11:26;97871.78;;;7.69;nan
54407;BME280;40313;50.308;30.374;2024-01-16T11:13:54;97873.22;;;7.49;nan
54407;BME280;40313;50.308;30.374;2024-01-16T11:16:22;97870.66;;;8.43;nan
54407;BME280;40313;50.308;30.374;2024-01-16T11:18:49;97847.53;;;7.82;nan
54407;BME280;40313;50.308;30.374;2024-01-16T11:21:16;97868.25;;;7.70;nan
54407;BME280;40313;50.308;30.374;2024-01-16T11:23:44;97885.75;;;7.55;nan
54407;BME280;40313;50.308;30.374;2024-01-16T11:26:26;97884.84;;;12.37;nan
54407;BME280;40313;50.308;30.374;2024-01-16T11:28:54;97897.50;;;9.11;nan
54407;BME280;40313;50.308;30.374;2024-01-16T11:31:29;97908.53;;;7.87;nan
54407;BME280;40313;50.308;30.374;2024-01-16T11:33:57;97908.44;;;7.89;nan
54407;BME280;40313;50.308;30.374;2024-01-16T11:36:46;97914.91;;;7.83;nan
54407;BME280;40313;50.308;30.374;2024-01-16T11:39:20;97871.88;;;7.68;nan
54407;BME280;40313;50.308;30.374;2024-01-16T11:41:54;97911.63;;;7.68;nan
54407;BME280;40313;50.308;30.374;2024-01-16T11:44:41;97923.22;;;8.00;nan
54407;BME280;40313;50.308;30.374;2024-01-16T11:47:08;97938.75;;;8.24;nan
54407;BME280;40313;50.308;30.374;2024-01-16T11:49:36;97897.97;;;8.13;nan
54407;BME280;40313;50.308;30.374;2024-01-16T11:52:03;97942.06;;;8.73;nan
54407;BME280;40313;50.308;30.374;2024-01-16T11:54:31;97938.41;;;8.64;nan
54407;BME280;40313;50.308;30.374;2024-01-16T12:00:18;97949.66;;;8.29;nan
54407;BME280;40313;50.308;30.374;2024-01-16T12:02:51;97925.41;;;7.93;nan
54407;BME280;40313;50.308;30.374;2024-01-16T12:05:19;97957.69;;;7.16;nan
54407;BME280;40313;50.308;30.374;2024-01-16T12:07:46;97961.88;;;6.80;nan
54407;BME280;40313;50.308;30.374;2024-01-16T12:10:16;97981.56;;;7.46;nan
54407;BME280;40313;50.308;30.374;2024-01-16T12:12:43;97949.19;;;7.01;nan
54407;BME280;40313;50.308;30.374;2024-01-16T12:15:14;97962.34;;;8.45;nan
54407;BME280;40313;50.308;30.374;2024-01-16T12:17:55;97956.56;;;7.82;nan
54407;BME280;40313;50.308;30.374;2024-01-16T12:20:23;97975.47;;;8.19;nan
54407;BME280;40313;50.308;30.374;2024-01-16T12:22:57;97978.72;;;7.86;nan
54407;BME280;40313;50.308;30.374;2024-01-16T12:25:25;97912.63;;;6.80;nan
54407;BME280;40313;50.308;30.374;2024-01-16T12:27:56;97972.13;;;7.07;nan
54407;BME280;40313;50.308;30.374;2024-01-16T12:30:24;97987.63;;;7.33;nan
54407;BME280;40313;50.308;30.374;2024-01-16T12:32:51;97963.53;;;6.15;nan
54407;BME280;40313;50.308;30.374;2024-01-16T12:35:21;97987.03;;;6.65;nan
54407;BME280;40313;50.308;30.374;2024-01-16T12:37:59;98002.16;;;6.84;nan
54407;BME280;40313;50.308;30.374;2024-01-16T12:40:27;97983.53;;;6.92;nan
54407;BME280;40313;50.308;30.374;2024-01-16T12:42:54;97966.94;;;6.82;nan
54407;BME280;40313;50.308;30.374;2024-01-16T12:45:22;98005.28;;;7.28;nan
54407;BME280;40313;50.308;30.374;2024-01-16T12:47:50;97984.56;;;6.77;nan
54407;BME280;40313;50.308;30.374;2024-01-16T12:50:19;98011.28;;;6.90;nan
54407;BME280;40313;50.308;30.374;2024-01-16T12:52:46;98013.97;;;7.40;nan
54407;BME280;40313;50.308;30.374;2024-01-16T12:55:14;98012.84;;;7.18;nan
54407;BME280;40313;50.308;30.374;2024-01-16T12:57:42;98023.50;;;7.39;nan
54407;BME280;40313;50.308;30.374;2024-01-16T13:00:22;98028.72;;;6.88;nan
54407;BME280;40313;50.308;30.374;2024-01-16T13:02:50;98036.09;;;6.94;nan
54407;BME280;40313;50.308;30.374;2024-01-16T13:05:18;98018.16;;;6.91;nan
54407;BME280;40313;50.308;30.374;2024-01-16T13:07:45;98040.66;;;7.29;nan
54407;BME280;40313;50.308;30.374;2024-01-16T13:10:12;98056.63;;;7.23;nan
54407;BME280;40313;50.308;30.374;2024-01-16T13:12:42;98058.16;;;6.74;nan
54407;BME280;40313;50.308;30.374;2024-01-16T13:15:09;98056.50;;;6.86;nan
54407;BME280;40313;50.308;30.374;2024-01-16T13:17:36;98057.84;;;7.30;nan
54407;BME280;40313;50.308;30.374;2024-01-16T13:20:05;98069.13;;;6.65;nan
54407;BME280;40313;50.308;30.374;2024-01-16T13:22:35;98047.94;;;6.45;nan
54407;BME280;40313;50.308;30.374;2024-01-16T13:25:02;98037.00;;;6.54;nan
54407;BME280;40313;50.308;30.374;2024-01-16T13:27:30;98057.34;;;5.77;nan
54407;BME280;40313;50.308;30.374;2024-01-16T13:29:59;98044.34;;;6.20;nan
54407;BME280;40313;50.308;30.374;2024-01-16T13:32:26;98080.84;;;6.57;nan
54407;BME280;40313;50.308;30.374;2024-01-16T13:34:53;98054.25;;;6.14;nan